KDLS/DLS METAR and TAF weather

Enter ICAO airport designator
Station Type Date Time Source
KDLS METAR 2019/12/16 02:53 UTC NOAA

KDLS 160253Z AUTO 22003KT 10SM CLR 02/M02 A3028 RMK AO2 SLP256 T00221022 51015


Station Type Date Time Source
KDLS Decoded METAR 2019/12/16 02:53 UTC NOAA

THE DALLES MUNICIPAL AIRPORT , OR, United States (KDLS) 45-37N 121-10W 71M
Dec 15, 2019 - 09:53 PM EST / 2019.12.16 0253 UTC
Wind: from the SW (220 degrees) at 3 MPH (3 KT):0
Visibility: 10 mile(s):0
Sky conditions: clear
Temperature: 36.0 F (2.2 C)
Dew Point: 28.0 F (-2.2 C)
Relative Humidity: 72%
Pressure (altimeter): 30.28 in. Hg (1025 hPa)
Pressure tendency: 0.04 inches (1.5 hPa) higher than three hours ago
ob: KDLS 160253Z AUTO 22003KT 10SM CLR 02/M02 A3028 RMK AO2 SLP256 T00221022 51015
cycle: 3

Station Type Date Time Source
KDLS TAF 2019/12/15 18:24 UTC NOAA

TAF KDLS 151723Z 1518/1618 30008KT P6SM SCT050
FM160000 VRB04KT P6SM FEW020 SCT200
FM160900 VRB02KT P6SM SCT015 SCT200
FM161500 VRB03KT P6SM BKN100

Example: see airport list